Time;durP1;ratioP1;P1;durP2;ratioP2;P2;SDS_P1;SDS_P2;PMS_P1;PMS_P2;Temp;Humidity;BMP_temperature;BMP_pressure;BME280_temperature;BME280_humidity;BME280_pressure;Samples;Min_cycle;Max_cycle;Signal;HPM_P1;HPM_P2
2021/07/09 00:00:47;;;;;;;1.80;1.70;;;;;;;16.83;100.00;100826.94;5070427;28;20186;-72
2021/07/09 00:03:12;;;;;;;2.23;1.80;;;;;;;16.81;100.00;100826.47;5071179;28;20198;-72
2021/07/09 00:05:38;;;;;;;1.63;1.53;;;;;;;16.76;100.00;100820.34;5070623;28;20179;-72
2021/07/09 00:08:03;;;;;;;1.57;1.40;;;;;;;16.72;100.00;100817.47;5070872;28;20182;-72
2021/07/09 00:10:29;;;;;;;2.40;2.20;;;;;;;16.66;100.00;100816.88;5070800;28;20520;-72
2021/07/09 00:12:54;;;;;;;1.67;1.57;;;;;;;16.64;100.00;100813.66;5070527;28;20224;-72
2021/07/09 00:15:19;;;;;;;2.03;1.90;;;;;;;16.61;100.00;100819.84;5070476;28;20210;-72
2021/07/09 00:17:46;;;;;;;2.50;2.30;;;;;;;16.62;100.00;100821.44;5070495;28;20285;-72
2021/07/09 00:20:11;;;;;;;2.67;2.33;;;;;;;16.69;100.00;100828.41;5070375;28;20185;-72
2021/07/09 00:22:37;;;;;;;2.47;2.27;;;;;;;16.70;100.00;100819.78;5070489;28;20194;-72
2021/07/09 00:25:04;;;;;;;2.00;1.87;;;;;;;16.73;100.00;100827.38;5070670;28;20236;-72
2021/07/09 00:27:29;;;;;;;4.13;2.83;;;;;;;16.75;100.00;100829.78;5070430;28;20170;-72
2021/07/09 00:29:55;;;;;;;2.70;2.47;;;;;;;16.81;100.00;100826.47;5070491;28;20182;-72
2021/07/09 00:32:20;;;;;;;2.83;2.27;;;;;;;16.86;100.00;100826.22;5070883;28;20178;-72
2021/07/09 00:34:45;;;;;;;2.10;2.00;;;;;;;16.91;100.00;100808.63;5069608;28;20171;-72
2021/07/09 00:37:11;;;;;;;6.63;2.20;;;;;;;16.88;100.00;100793.56;5073410;28;20240;-72
2021/07/09 00:39:36;;;;;;;2.50;2.30;;;;;;;16.88;100.00;100792.75;5073245;28;20273;-72
2021/07/09 00:42:02;;;;;;;2.63;2.43;;;;;;;16.89;100.00;100799.88;5074540;28;20184;-72
2021/07/09 00:44:27;;;;;;;2.17;2.07;;;;;;;16.91;99.98;100792.88;5074660;28;20198;-72
2021/07/09 00:46:52;;;;;;;2.17;2.07;;;;;;;16.92;100.00;100796.44;5074383;28;20581;-72
2021/07/09 00:49:18;;;;;;;2.80;2.60;;;;;;;16.91;100.00;100792.88;5074016;28;20228;-72
2021/07/09 00:51:43;;;;;;;2.17;2.07;;;;;;;16.90;99.86;100796.78;5072802;28;20324;-72
2021/07/09 00:54:09;;;;;;;2.80;2.50;;;;;;;16.88;100.00;100798.28;5074366;28;20643;-72
2021/07/09 00:56:35;;;;;;;3.90;2.40;;;;;;;16.80;100.00;100797.25;5074298;28;20186;-72
2021/07/09 00:59:01;;;;;;;2.67;2.20;;;;;;;16.77;100.00;100800.69;5074136;28;20170;-72
2021/07/09 01:01:27;;;;;;;1.90;1.80;;;;;;;16.79;100.00;100798.41;5074102;28;20186;-72
2021/07/09 01:03:52;;;;;;;2.03;1.93;;;;;;;16.87;100.00;100796.69;5073952;28;20198;-72
2021/07/09 01:06:18;;;;;;;2.03;1.80;;;;;;;16.89;100.00;100791.63;5074026;28;20174;-72
2021/07/09 01:08:43;;;;;;;1.93;1.83;;;;;;;16.90;100.00;100798.75;5073948;28;20576;-72
2021/07/09 01:11:10;;;;;;;2.03;1.80;;;;;;;16.91;100.00;100803.09;5073887;28;20202;-72
2021/07/09 01:13:35;;;;;;;2.07;1.97;;;;;;;16.95;100.00;100804.06;5074213;28;20197;-72
2021/07/09 01:16:01;;;;;;;2.63;2.43;;;;;;;16.90;100.00;100799.53;5073766;28;20630;-72
2021/07/09 01:18:27;;;;;;;2.47;2.27;;;;;;;16.91;100.00;100803.91;5073617;28;20171;-72
2021/07/09 01:20:52;;;;;;;2.50;2.30;;;;;;;16.97;100.00;100807.25;5073745;28;20209;-72
2021/07/09 01:23:20;;;;;;;2.30;2.20;;;;;;;16.95;100.00;100809.56;5073857;28;20224;-72
2021/07/09 01:25:46;;;;;;;1.87;1.77;;;;;;;16.84;100.00;100805.66;5073698;28;20250;-72
2021/07/09 01:28:11;;;;;;;2.80;2.60;;;;;;;16.76;100.00;100812.06;5073404;28;20266;-72
2021/07/09 01:30:37;;;;;;;2.57;2.37;;;;;;;16.64;100.00;100802.63;5073526;28;20235;-72
2021/07/09 01:33:04;;;;;;;2.23;2.03;;;;;;;16.56;100.00;100811.00;5073260;28;20185;-72
2021/07/09 01:35:30;;;;;;;2.60;2.40;;;;;;;16.51;100.00;100812.03;5073704;28;20182;-72
2021/07/09 01:38:02;;;;;;;2.17;2.07;;;;;;;16.52;100.00;100810.09;5073387;28;20179;-72
2021/07/09 01:40:29;;;;;;;2.77;2.57;;;;;;;16.56;100.00;100816.50;5073368;28;20170;-72
2021/07/09 01:42:55;;;;;;;2.70;2.50;;;;;;;16.55;100.00;100814.91;5072974;28;20216;-72
2021/07/09 01:45:22;;;;;;;2.80;2.47;;;;;;;16.53;100.00;100815.25;5073182;28;20649;-72
2021/07/09 01:47:48;;;;;;;6.70;2.67;;;;;;;16.50;100.00;100815.13;5072147;28;20182;-72
2021/07/09 01:50:14;;;;;;;3.10;2.80;;;;;;;16.49;100.00;100814.34;5073296;28;20178;-72
2021/07/09 01:52:40;;;;;;;3.10;2.80;;;;;;;16.46;100.00;100816.94;5072866;28;20170;-72
2021/07/09 01:55:06;;;;;;;2.63;2.43;;;;;;;16.45;100.00;100821.66;5073053;28;20175;-72
2021/07/09 01:57:32;;;;;;;2.83;2.63;;;;;;;16.41;100.00;100815.22;5073020;28;20654;-72
2021/07/09 01:59:59;;;;;;;8.13;2.47;;;;;;;16.36;100.00;100816.25;5073014;28;20170;-72
2021/07/09 02:02:25;;;;;;;3.40;3.10;;;;;;;16.35;100.00;100813.84;5072565;28;20252;-72
2021/07/09 02:04:54;;;;;;;2.63;2.47;;;;;;;16.33;100.00;100816.09;5072846;28;20711;-72
2021/07/09 02:07:21;;;;;;;2.93;2.70;;;;;;;16.35;100.00;100819.34;5072868;28;20633;-72
2021/07/09 02:09:48;;;;;;;6.30;3.07;;;;;;;16.39;100.00;100825.00;5072775;28;20171;-72
2021/07/09 02:12:17;;;;;;;3.30;3.10;;;;;;;16.46;100.00;100827.97;5072613;28;20182;-72
2021/07/09 02:14:42;;;;;;;3.23;2.97;;;;;;;16.45;100.00;100818.91;5072652;28;20645;-72
2021/07/09 02:17:10;;;;;;;3.20;3.00;;;;;;;16.46;100.00;100820.50;5072527;28;20174;-72
2021/07/09 02:19:37;;;;;;;4.37;2.90;;;;;;;16.45;100.00;100807.06;5072620;28;20167;-72
2021/07/09 02:22:04;;;;;;;2.83;2.63;;;;;;;16.42;100.00;100811.31;5072285;28;20174;-72
2021/07/09 02:24:32;;;;;;;3.30;3.00;;;;;;;16.37;100.00;100806.03;5072259;28;20696;-72
2021/07/09 02:26:59;;;;;;;3.20;2.63;;;;;;;16.31;100.00;100799.09;5072554;28;20757;-72
2021/07/09 02:29:24;;;;;;;3.03;2.50;;;;;;;16.29;100.00;100795.88;5072333;28;20184;-72
2021/07/09 02:31:50;;;;;;;3.80;3.17;;;;;;;16.25;100.00;100794.97;5072118;28;20174;-72
2021/07/09 02:34:15;;;;;;;3.80;3.20;;;;;;;16.22;100.00;100788.19;5072229;28;20495;-72
2021/07/09 02:36:40;;;;;;;3.27;2.97;;;;;;;16.23;100.00;100794.50;5072109;28;20228;-72
2021/07/09 02:39:06;;;;;;;4.33;3.27;;;;;;;16.22;100.00;100790.94;5072136;28;20174;-72
2021/07/09 02:41:31;;;;;;;7.00;4.40;;;;;;;16.21;100.00;100789.34;5071804;28;20220;-72
2021/07/09 02:43:56;;;;;;;5.90;2.90;;;;;;;16.20;100.00;100792.41;5071973;28;20190;-72
2021/07/09 02:46:22;;;;;;;3.33;3.13;;;;;;;16.16;100.00;100786.78;5072049;28;20181;-72
2021/07/09 02:48:47;;;;;;;3.70;3.50;;;;;;;16.14;100.00;100786.31;5071895;28;20170;-72
2021/07/09 02:51:12;;;;;;;4.77;4.37;;;;;;;16.14;100.00;100791.81;5071748;28;20177;-72
2021/07/09 02:53:38;;;;;;;3.93;3.63;;;;;;;16.15;100.00;100782.41;5071739;28;20577;-72
2021/07/09 02:56:03;;;;;;;5.20;4.70;;;;;;;16.17;100.00;100784.81;5071647;28;20181;-72
2021/07/09 02:58:30;;;;;;;4.47;4.17;;;;;;;16.17;100.00;100790.34;5071454;28;20178;-72
2021/07/09 03:00:55;;;;;;;6.07;4.13;;;;;;;16.17;100.00;100791.13;5071169;28;20601;-72
2021/07/09 03:03:20;;;;;;;4.43;4.03;;;;;;;16.18;100.00;100792.75;5071654;28;20301;-72
2021/07/09 03:05:46;;;;;;;4.50;4.20;;;;;;;16.21;100.00;100791.28;5071526;28;20171;-72
2021/07/09 03:08:11;;;;;;;6.40;4.50;;;;;;;16.23;100.00;100777.97;5071515;28;20194;-72
2021/07/09 03:10:36;;;;;;;5.50;5.00;;;;;;;16.27;100.00;100776.13;5071559;28;20650;-72
2021/07/09 03:13:02;;;;;;;5.10;4.63;;;;;;;16.28;100.00;100783.25;5071100;28;20167;-72
2021/07/09 03:15:28;;;;;;;5.73;4.40;;;;;;;16.27;100.00;100774.16;5071424;28;20178;-72
2021/07/09 03:17:53;;;;;;;5.20;4.80;;;;;;;16.22;100.00;100777.16;5071319;28;20617;-72
2021/07/09 03:20:19;;;;;;;6.20;5.80;;;;;;;16.20;100.00;100771.19;5071451;28;20220;-73
2021/07/09 03:22:44;;;;;;;6.10;5.43;;;;;;;16.18;100.00;100767.13;5070928;28;20277;-72
2021/07/09 03:25:10;;;;;;;5.50;5.10;;;;;;;16.16;100.00;100777.69;5071189;28;20232;-72
2021/07/09 03:27:36;;;;;;;5.07;4.77;;;;;;;16.15;100.00;100776.09;5071163;28;20175;-72
2021/07/09 03:30:04;;;;;;;5.87;5.47;;;;;;;16.16;100.00;100766.66;5071197;28;20178;-72
2021/07/09 03:32:29;;;;;;;6.23;5.70;;;;;;;16.16;100.00;100750.13;5070849;28;20175;-72
2021/07/09 03:34:55;;;;;;;6.37;5.30;;;;;;;16.16;100.00;100755.66;5071162;28;20180;-72
2021/07/09 03:37:20;;;;;;;6.10;5.60;;;;;;;16.16;100.00;100739.91;5071038;28;20264;-72
2021/07/09 03:39:45;;;;;;;7.03;5.63;;;;;;;16.17;100.00;100755.31;5070970;28;20178;-73
2021/07/09 03:42:11;;;;;;;5.93;5.47;;;;;;;16.18;100.00;100745.06;5070774;28;20179;-73
2021/07/09 03:44:36;;;;;;;8.40;6.23;;;;;;;16.21;100.00;100738.91;5070636;28;20213;-72
2021/07/09 03:47:02;;;;;;;7.07;5.77;;;;;;;16.22;100.00;100735.81;5070974;28;20202;-73
2021/07/09 03:49:27;;;;;;;8.97;6.27;;;;;;;16.23;100.00;100739.38;5071298;28;20179;-72
2021/07/09 03:51:52;;;;;;;10.00;6.60;;;;;;;16.28;100.00;100731.66;5070726;28;20258;-73
2021/07/09 03:54:18;;;;;;;9.00;8.30;;;;;;;16.32;100.00;100740.06;5070904;28;20511;-72
2021/07/09 03:56:43;;;;;;;6.87;6.27;;;;;;;16.35;100.00;100737.44;5067620;28;20182;-72
2021/07/09 03:59:09;;;;;;;7.63;7.13;;;;;;;16.34;100.00;100732.22;5069389;28;20175;-73
2021/07/09 04:01:34;;;;;;;8.63;7.93;;;;;;;16.33;100.00;100731.44;5070753;28;20209;-73
2021/07/09 04:03:59;;;;;;;8.90;7.87;;;;;;;16.34;100.00;100735.78;5071155;28;20202;-72
2021/07/09 04:06:25;;;;;;;8.37;7.67;;;;;;;16.39;100.00;100743.06;5071098;28;20327;-72
2021/07/09 04:08:50;;;;;;;9.93;8.47;;;;;;;16.36;100.00;100741.00;5071075;28;20217;-72
2021/07/09 04:11:15;;;;;;;9.53;8.73;;;;;;;16.33;100.00;100734.19;5069916;28;20183;-72
2021/07/09 04:13:41;;;;;;;9.37;8.57;;;;;;;16.40;100.00;100741.91;5070549;28;20586;-72
2021/07/09 04:16:06;;;;;;;9.47;8.73;;;;;;;16.46;100.00;100739.72;5070662;28;20318;-73
2021/07/09 04:18:32;;;;;;;9.30;8.50;;;;;;;16.48;100.00;100746.50;5070573;28;20171;-74
2021/07/09 04:20:57;;;;;;;9.70;8.80;;;;;;;16.48;100.00;100746.50;5071223;28;20202;-74
2021/07/09 04:23:23;;;;;;;8.83;8.10;;;;;;;16.49;100.00;100744.53;5070550;28;20198;-74
2021/07/09 04:25:48;;;;;;;9.13;8.33;;;;;;;16.49;100.00;100756.41;5071044;28;20178;-74
2021/07/09 04:28:14;;;;;;;9.30;8.40;;;;;;;16.52;100.00;100755.72;5070800;28;20212;-73
2021/07/09 04:30:40;;;;;;;9.73;8.87;;;;;;;16.58;100.00;100756.28;5070740;28;20223;-74
2021/07/09 04:33:05;;;;;;;9.80;9.00;;;;;;;16.59;100.00;100747.66;5070670;28;20179;-74
2021/07/09 04:35:30;;;;;;;10.37;9.57;;;;;;;16.62;100.00;100744.22;5071022;28;20182;-73
2021/07/09 04:37:56;;;;;;;9.90;8.90;;;;;;;16.65;100.00;100746.28;5071070;28;20225;-74
2021/07/09 04:40:21;;;;;;;8.73;7.83;;;;;;;16.65;100.00;100738.03;5071074;28;20178;-73
2021/07/09 04:42:47;;;;;;;8.93;8.17;;;;;;;16.66;100.00;100742.38;5070492;28;20289;-74
2021/07/09 04:45:13;;;;;;;9.27;8.50;;;;;;;16.65;100.00;100735.25;5070574;28;20433;-74
2021/07/09 04:47:38;;;;;;;9.53;8.83;;;;;;;16.66;100.00;100736.06;5070866;28;20190;-74
2021/07/09 04:50:06;;;;;;;10.87;9.67;;;;;;;16.65;100.00;100737.22;5069724;28;20179;-74
2021/07/09 04:52:31;;;;;;;9.53;8.73;;;;;;;16.66;100.00;100745.16;5070761;28;20316;-75
2021/07/09 04:54:57;;;;;;;9.20;8.30;;;;;;;16.70;100.00;100736.19;5070927;28;20253;-74
2021/07/09 04:57:25;;;;;;;9.90;9.10;;;;;;;16.72;100.00;100742.97;5070567;28;20175;-74
2021/07/09 04:59:52;;;;;;;8.67;8.03;;;;;;;16.76;100.00;100741.13;5070773;28;20239;-74
2021/07/09 05:02:17;;;;;;;8.93;8.13;;;;;;;16.76;100.00;100752.16;5070270;28;20197;-74
2021/07/09 05:04:43;;;;;;;10.40;9.57;;;;;;;16.73;100.00;100758.38;5070664;28;20214;-74
2021/07/09 05:07:08;;;;;;;9.17;8.47;;;;;;;16.74;100.00;100750.91;5070476;28;20205;-74
2021/07/09 05:09:33;;;;;;;9.60;8.37;;;;;;;16.73;100.00;100749.31;5070875;28;20250;-74
2021/07/09 05:11:59;;;;;;;11.67;9.03;;;;;;;16.69;100.00;100742.88;5070276;28;20179;-75
2021/07/09 05:14:24;;;;;;;11.70;9.83;;;;;;;16.66;100.00;100738.81;5070799;28;20680;-74
2021/07/09 05:16:50;;;;;;;9.87;8.80;;;;;;;16.62;100.00;100741.44;5070594;28;20187;-74
2021/07/09 05:19:15;;;;;;;10.57;9.67;;;;;;;16.60;100.00;100737.44;5071235;28;20249;-73
2021/07/09 05:21:40;;;;;;;10.63;9.53;;;;;;;16.60;100.00;100738.22;5070813;28;20232;-74
2021/07/09 05:24:09;;;;;;;9.83;9.00;;;;;;;16.60;100.00;100735.47;5074407;28;20668;-74
2021/07/09 05:26:35;;;;;;;9.83;9.03;;;;;;;16.60;100.00;100735.47;5074642;28;20178;-74
2021/07/09 05:29:01;;;;;;;10.07;9.17;;;;;;;16.61;100.00;100734.31;5074212;28;20243;-74
2021/07/09 05:31:27;;;;;;;17.10;10.00;;;;;;;16.68;100.00;100747.59;5074239;28;20175;-74
2021/07/09 05:33:53;;;;;;;9.60;8.80;;;;;;;16.75;100.00;100752.53;5074446;28;20171;-74
2021/07/09 05:36:21;;;;;;;10.33;9.40;;;;;;;16.71;100.00;100752.41;5073976;28;20187;-74
2021/07/09 05:38:46;;;;;;;10.20;9.30;;;;;;;16.70;100.00;100742.53;5074335;28;20179;-72
2021/07/09 05:41:11;;;;;;;9.80;8.90;;;;;;;16.73;100.00;100752.06;5080529;28;20178;-73
2021/07/09 05:43:37;;;;;;;9.27;8.47;;;;;;;16.71;100.00;100748.84;5076039;28;20202;-74
2021/07/09 05:46:02;;;;;;;10.27;9.27;;;;;;;16.72;100.00;100755.97;5071479;28;20174;-72
2021/07/09 05:48:27;;;;;;;10.73;9.63;;;;;;;16.75;100.00;100756.09;5073483;28;20277;-72
2021/07/09 05:50:53;;;;;;;10.80;9.80;;;;;;;16.73;100.00;100755.63;5073090;28;20202;-74
2021/07/09 05:53:18;;;;;;;10.30;9.37;;;;;;;16.82;100.00;100759.09;5073118;28;20221;-74
2021/07/09 05:55:45;;;;;;;10.00;8.90;;;;;;;16.83;100.00;100759.88;5073072;28;20701;-75
2021/07/09 05:58:10;;;;;;;9.33;8.63;;;;;;;16.78;100.00;100765.63;5073068;28;20163;-75
2021/07/09 06:00:36;;;;;;;12.73;9.67;;;;;;;16.78;100.00;100762.84;5073057;28;20173;-75
2021/07/09 06:03:02;;;;;;;10.17;9.27;;;;;;;16.80;100.00;100763.34;5072789;28;20198;-74
2021/07/09 06:05:27;;;;;;;9.73;8.93;;;;;;;16.80;100.00;100755.06;5072703;28;20171;-74
2021/07/09 06:07:53;;;;;;;8.67;7.97;;;;;;;16.86;100.00;100759.19;5072430;28;20190;-75
2021/07/09 06:10:19;;;;;;;9.73;8.83;;;;;;;16.85;100.00;100758.38;5072357;28;20269;-75
2021/07/09 06:12:45;;;;;;;8.40;7.53;;;;;;;16.87;100.00;100758.03;5072282;28;20549;-74
2021/07/09 06:15:11;;;;;;;9.97;8.87;;;;;;;16.86;100.00;100748.94;5071978;28;20182;-74
2021/07/09 06:17:36;;;;;;;8.30;7.60;;;;;;;16.90;100.00;100751.81;5071897;28;20182;-75
2021/07/09 06:20:05;;;;;;;9.50;8.70;;;;;;;16.90;100.00;100743.53;5072090;28;20174;-75
2021/07/09 06:22:30;;;;;;;10.73;9.83;;;;;;;16.89;100.00;100748.25;5071935;28;20177;-75
2021/07/09 06:24:56;;;;;;;10.23;9.33;;;;;;;16.92;100.00;100750.34;5072001;28;20175;-75
2021/07/09 06:27:21;;;;;;;16.93;9.10;;;;;;;16.93;100.00;100751.16;5072124;28;20213;-74
2021/07/09 06:29:47;;;;;;;10.03;9.13;;;;;;;16.99;100.00;100760.00;5072098;28;20557;-77
2021/07/09 06:32:12;;;;;;;9.97;9.17;;;;;;;17.00;100.00;100758.84;5072070;28;20218;-76
2021/07/09 06:34:37;;;;;;;9.60;8.80;;;;;;;16.95;100.00;100759.88;5072041;28;20648;-73
2021/07/09 06:37:03;;;;;;;9.47;8.70;;;;;;;16.97;100.00;100756.78;5072378;28;20655;-73
2021/07/09 06:39:28;;;;;;;8.73;8.03;;;;;;;16.90;100.00;100765.63;5072298;28;20166;-72
2021/07/09 06:41:54;;;;;;;9.40;8.57;;;;;;;16.87;100.00;100755.28;5072138;28;20175;-72
2021/07/09 06:44:19;;;;;;;9.13;8.43;;;;;;;16.85;100.00;100769.44;5072022;28;20213;-72
2021/07/09 06:46:46;;;;;;;10.60;9.70;;;;;;;16.86;100.00;100773.00;5072214;28;20210;-72
2021/07/09 06:49:11;;;;;;;9.13;8.37;;;;;;;16.87;100.00;100774.59;5071904;28;20163;-72
2021/07/09 06:51:37;;;;;;;10.17;9.17;;;;;;;16.90;100.00;100784.94;5071466;28;20266;-72
2021/07/09 06:54:02;;;;;;;8.23;7.53;;;;;;;16.93;100.00;100778.75;5071682;28;20178;-72
2021/07/09 06:56:28;;;;;;;10.60;9.70;;;;;;;16.87;100.00;100778.16;5071812;28;20629;-73
2021/07/09 06:58:54;;;;;;;11.20;10.30;;;;;;;16.88;100.00;100784.47;5071350;28;20228;-73
2021/07/09 07:01:19;;;;;;;9.63;8.83;;;;;;;16.92;100.00;100783.47;5071005;28;20175;-74
2021/07/09 07:03:45;;;;;;;11.10;10.10;;;;;;;16.90;100.00;100782.19;5071163;28;20601;-73
2021/07/09 07:06:11;;;;;;;10.23;9.23;;;;;;;16.89;100.00;100775.84;5071176;28;20491;-73
2021/07/09 07:08:37;;;;;;;9.93;8.60;;;;;;;16.87;100.00;100778.16;5071673;28;20186;-73
2021/07/09 07:11:02;;;;;;;7.97;7.37;;;;;;;16.83;100.00;100780.00;5071018;28;20570;-73
2021/07/09 07:13:28;;;;;;;9.63;8.93;;;;;;;16.81;100.00;100776.00;5070995;28;20606;-72
2021/07/09 07:15:53;;;;;;;9.43;8.73;;;;;;;16.80;100.00;100790.94;5071459;28;20235;-73
2021/07/09 07:18:19;;;;;;;10.13;9.33;;;;;;;16.79;100.00;100790.13;5071462;28;20218;-73
2021/07/09 07:20:46;;;;;;;10.27;9.37;;;;;;;16.80;100.00;100786.22;5071281;28;20185;-73
2021/07/09 07:23:12;;;;;;;9.63;8.80;;;;;;;16.80;100.00;100788.97;5071346;28;20209;-72
2021/07/09 07:25:39;;;;;;;11.10;10.07;;;;;;;16.80;100.00;100783.47;5071296;28;20179;-72
2021/07/09 07:28:05;;;;;;;10.20;9.47;;;;;;;16.80;100.00;100788.19;5071337;28;20265;-72
2021/07/09 07:30:30;;;;;;;10.77;9.87;;;;;;;16.78;100.00;100777.50;5071454;28;20184;-72
2021/07/09 07:32:56;;;;;;;11.80;10.90;;;;;;;16.83;100.00;100781.97;5071086;28;20188;-73
2021/07/09 07:35:22;;;;;;;19.47;10.80;;;;;;;16.85;100.00;100774.13;5071169;28;20257;-73
2021/07/09 07:37:47;;;;;;;13.23;11.13;;;;;;;16.85;100.00;100782.41;5070963;28;20646;-73
2021/07/09 07:40:13;;;;;;;11.60;10.40;;;;;;;16.89;100.00;100783.34;5070956;28;20178;-72
2021/07/09 07:42:39;;;;;;;12.93;11.77;;;;;;;16.88;100.00;100779.78;5070745;28;20541;-74
2021/07/09 07:45:05;;;;;;;11.93;11.03;;;;;;;16.96;100.00;100778.06;5069568;28;20186;-73
2021/07/09 07:47:31;;;;;;;11.70;10.60;;;;;;;16.99;100.00;100777.34;5069825;28;20211;-73
2021/07/09 07:49:56;;;;;;;12.60;11.37;;;;;;;16.92;100.00;100777.94;5070169;28;20213;-73
2021/07/09 07:52:22;;;;;;;11.10;10.20;;;;;;;17.05;100.00;100784.25;5070645;28;20185;-73
2021/07/09 07:54:47;;;;;;;12.43;11.33;;;;;;;17.07;100.00;100781.97;5070874;28;20645;-73
2021/07/09 07:57:13;;;;;;;12.63;11.43;;;;;;;17.03;100.00;100785.75;5070952;28;20177;-72
2021/07/09 07:59:38;;;;;;;10.30;9.50;;;;;;;17.13;100.00;100788.03;5070488;28;20261;-74
2021/07/09 08:02:03;;;;;;;11.30;10.40;;;;;;;17.15;100.00;100780.22;5070183;28;20214;-73
2021/07/09 08:04:30;;;;;;;10.30;9.40;;;;;;;17.17;100.00;100780.66;5071096;28;20321;-73
2021/07/09 08:06:55;;;;;;;10.17;9.37;;;;;;;17.14;100.00;100778.59;5070003;28;20608;-73
2021/07/09 08:09:21;;;;;;;8.43;7.83;;;;;;;17.17;100.00;100775.94;5070213;28;20175;-73
2021/07/09 08:11:46;;;;;;;8.50;7.90;;;;;;;17.09;100.00;100782.41;5070211;28;20221;-73
2021/07/09 08:14:11;;;;;;;8.30;7.70;;;;;;;17.12;100.00;100784.47;5070536;28;20233;-74
2021/07/09 08:16:37;;;;;;;9.00;8.20;;;;;;;17.14;100.00;100786.88;5070407;28;20174;-73
2021/07/09 08:19:02;;;;;;;10.13;9.33;;;;;;;17.12;100.00;100783.66;5070220;28;20202;-73
2021/07/09 08:21:28;;;;;;;9.73;8.83;;;;;;;17.10;100.00;100784.03;5069995;28;20174;-73
2021/07/09 08:23:54;;;;;;;8.83;8.10;;;;;;;17.22;100.00;100797.00;5068928;28;20263;-74
2021/07/09 08:26:20;;;;;;;8.80;8.17;;;;;;;17.21;100.00;100795.38;5068568;28;20186;-73
2021/07/09 08:28:45;;;;;;;9.93;9.13;;;;;;;17.18;100.00;100788.59;5068640;28;20187;-73
2021/07/09 08:31:10;;;;;;;9.30;8.57;;;;;;;17.19;100.00;100792.97;5069731;28;20186;-72
2021/07/09 08:33:36;;;;;;;9.57;8.30;;;;;;;17.24;100.00;100784.47;5070811;28;20224;-73
2021/07/09 08:36:02;;;;;;;9.70;8.93;;;;;;;17.22;100.00;100780.44;5069882;28;20166;-73
2021/07/09 08:38:27;;;;;;;10.03;9.13;;;;;;;17.24;100.00;100789.19;5067252;28;20182;-73
2021/07/09 08:40:53;;;;;;;9.43;8.63;;;;;;;17.27;100.00;100782.97;5069855;28;20183;-73
2021/07/09 08:43:18;;;;;;;9.43;8.60;;;;;;;17.24;100.00;100792.75;5070050;28;20668;-73
2021/07/09 08:45:44;;;;;;;9.10;8.30;;;;;;;17.23;100.00;100798.63;5070158;28;20530;-73
2021/07/09 08:48:12;;;;;;;9.70;8.90;;;;;;;17.25;100.00;100797.13;5068965;28;20178;-73
2021/07/09 08:50:37;;;;;;;9.53;8.67;;;;;;;17.29;100.00;100793.66;5070070;28;20181;-73
2021/07/09 08:53:03;;;;;;;10.50;9.60;;;;;;;17.34;100.00;100783.16;5070277;28;20170;-73
2021/07/09 08:55:28;;;;;;;11.27;10.17;;;;;;;17.32;100.00;100784.66;5070028;28;20623;-72
2021/07/09 08:57:53;;;;;;;10.97;10.03;;;;;;;17.31;100.00;100780.28;5074126;28;20495;-73
2021/07/09 09:00:21;;;;;;;11.30;10.30;;;;;;;17.32;100.00;100779.94;5073758;28;20216;-73
2021/07/09 09:02:48;;;;;;;10.67;9.80;;;;;;;17.32;100.00;100779.13;5070598;28;20190;-73
2021/07/09 09:05:23;;;;;;;8.33;7.67;;;;;;;17.34;100.00;100780.41;5073525;28;20190;-73
2021/07/09 09:07:59;;;;;;;10.20;9.30;;;;;;;17.30;100.00;100781.44;5065831;28;20565;-73
2021/07/09 09:10:45;;;;;;;10.57;9.67;;;;;;;17.21;100.00;100782.41;5073087;28;20174;-73
2021/07/09 09:13:14;;;;;;;8.40;7.67;;;;;;;17.20;100.00;100788.25;5072333;28;20182;-72
2021/07/09 09:15:43;;;;;;;9.77;9.07;;;;;;;17.24;100.00;100778.94;5072972;28;20175;-73
2021/07/09 09:18:22;;;;;;;10.00;9.20;;;;;;;17.22;100.00;100770.19;5072815;28;20265;-72
2021/07/09 09:21:01;;;;;;;6.93;6.37;;;;;;;17.15;100.00;100777.44;5073217;28;20170;-73
2021/07/09 09:23:28;;;;;;;9.67;8.93;;;;;;;17.17;100.00;100783.44;5073514;28;20284;-72
2021/07/09 09:25:54;;;;;;;7.43;6.53;;;;;;;17.19;100.00;100776.41;5073223;28;20211;-73
2021/07/09 09:28:20;;;;;;;7.90;7.20;;;;;;;17.09;100.00;100768.59;5070354;28;20187;-72
2021/07/09 09:30:50;;;;;;;8.40;7.63;;;;;;;17.06;100.00;100776.75;5072870;28;20186;-72
2021/07/09 09:33:15;;;;;;;8.23;7.40;;;;;;;17.04;100.00;100785.38;5073202;28;20236;-72
2021/07/09 09:35:43;;;;;;;8.27;6.57;;;;;;;17.03;100.00;100767.22;5073093;28;20178;-72
2021/07/09 09:38:11;;;;;;;9.07;8.30;;;;;;;17.02;100.00;100768.38;5072715;28;20174;-72
2021/07/09 09:40:39;;;;;;;7.73;7.13;;;;;;;17.07;100.00;100773.69;5072611;28;20175;-73
2021/07/09 09:43:10;;;;;;;8.03;7.33;;;;;;;17.10;100.00;100772.16;5072776;28;20206;-73
2021/07/09 09:45:36;;;;;;;8.00;7.33;;;;;;;17.13;100.00;100772.28;5073037;28;20190;-72
2021/07/09 09:48:13;;;;;;;8.70;7.90;;;;;;;17.23;100.00;100762.72;5072791;28;20178;-73
2021/07/09 09:50:47;;;;;;;8.73;7.93;;;;;;;17.29;100.00;100774.31;5067447;28;20581;-72
2021/07/09 09:53:13;;;;;;;8.90;8.20;;;;;;;17.34;100.00;100776.81;5065296;28;20939;-72
2021/07/09 09:55:40;;;;;;;8.57;7.70;;;;;;;17.41;100.00;100777.84;5072462;28;20207;-73
2021/07/09 09:58:18;;;;;;;8.80;8.10;;;;;;;17.49;100.00;100776.09;5072259;28;20653;-73
2021/07/09 10:00:46;;;;;;;8.43;7.73;;;;;;;17.55;100.00;100777.47;5072599;28;20178;-73
2021/07/09 10:03:12;;;;;;;9.33;8.43;;;;;;;17.57;100.00;100777.13;5072457;28;20248;-73
2021/07/09 10:05:42;;;;;;;7.83;7.13;;;;;;;17.55;100.00;100775.53;5072536;28;20258;-73
2021/07/09 10:08:13;;;;;;;8.93;8.03;;;;;;;17.48;100.00;100780.00;5071772;28;20175;-73
2021/07/09 10:10:40;;;;;;;8.23;7.63;;;;;;;17.51;100.00;100768.28;5072426;28;20274;-73
2021/07/09 10:13:06;;;;;;;8.47;7.77;;;;;;;17.55;100.00;100771.94;5072441;28;20174;-73
2021/07/09 10:15:32;;;;;;;8.07;7.30;;;;;;;17.52;100.00;100772.66;5072616;28;20183;-73
2021/07/09 10:17:58;;;;;;;8.63;7.87;;;;;;;17.56;100.00;100770.78;5072375;28;20569;-73
2021/07/09 10:20:24;;;;;;;8.97;8.03;;;;;;;17.57;100.00;100772.41;5072444;28;20182;-73
2021/07/09 10:22:50;;;;;;;7.63;7.07;;;;;;;17.53;100.00;100772.31;5071974;28;20204;-73
2021/07/09 10:25:18;;;;;;;9.37;8.67;;;;;;;17.60;100.00;100779.97;5072296;28;20189;-73
2021/07/09 10:27:43;;;;;;;10.37;9.60;;;;;;;17.63;100.00;100775.72;5072320;28;20174;-73
2021/07/09 10:30:10;;;;;;;10.67;9.53;;;;;;;17.64;100.00;100791.13;5072282;28;20197;-73
2021/07/09 10:32:40;;;;;;;9.73;8.93;;;;;;;17.72;100.00;100781.94;5071814;28;20176;-73
2021/07/09 10:35:33;;;;;;;10.47;9.57;;;;;;;17.69;100.00;100788.16;5072116;28;20249;-73
2021/07/09 10:38:08;;;;;;;10.27;9.37;;;;;;;17.72;100.00;100788.25;5066751;28;20658;-73
2021/07/09 10:40:34;;;;;;;9.70;9.00;;;;;;;17.72;100.00;100791.03;5072680;28;20242;-73
2021/07/09 10:43:01;;;;;;;10.20;9.40;;;;;;;17.68;100.00;100792.06;5071602;28;20662;-73
2021/07/09 10:45:28;;;;;;;10.63;9.83;;;;;;;17.61;100.00;100791.84;5072024;28;20261;-73
2021/07/09 10:48:10;;;;;;;9.70;8.97;;;;;;;17.64;100.00;100786.41;5071987;28;20183;-73
2021/07/09 10:50:53;;;;;;;10.93;10.13;;;;;;;17.58;100.00;100796.13;5071710;28;20257;-73
2021/07/09 10:53:25;;;;;;;9.97;9.17;;;;;;;17.57;100.00;100788.19;5071837;28;20182;-73
2021/07/09 10:56:12;;;;;;;9.60;8.90;;;;;;;17.63;100.00;100792.28;5071855;28;20701;-73
2021/07/09 10:58:45;;;;;;;9.87;8.97;;;;;;;17.57;100.00;100796.47;5071616;28;20171;-72
2021/07/09 11:01:13;;;;;;;9.60;8.83;;;;;;;17.64;100.00;100794.69;5063346;28;20202;-73
2021/07/09 11:03:43;;;;;;;8.73;8.13;;;;;;;17.68;100.00;100786.53;5059728;28;20210;-73
2021/07/09 11:06:13;;;;;;;13.57;9.17;;;;;;;17.73;100.00;100783.53;5067933;28;20660;-73
2021/07/09 11:08:41;;;;;;;10.03;9.13;;;;;;;17.78;100.00;100783.28;5072072;28;20231;-74
2021/07/09 11:11:13;;;;;;;8.70;8.10;;;;;;;17.82;100.00;100771.19;5071763;28;20186;-73